Time;durP1;ratioP1;P1;durP2;ratioP2;P2;SDS_P1;SDS_P2;PMS_P1;PMS_P2;Temp;Humidity;BMP_temperature;BMP_pressure;BME280_temperature;BME280_humidity;BME280_pressure;Samples;Min_cycle;Max_cycle;Signal;HPM_P1;HPM_P2
2022/07/29 00:00:16;;;;;;;11.57;8.57;;;;;;;19.32;100.00;62867.00;5089106;28;20198;-76
2022/07/29 00:02:43;;;;;;;9.87;8.37;;;;;;;19.41;100.00;62881.38;5091349;28;20257;-75
2022/07/29 00:05:13;;;;;;;9.93;8.37;;;;;;;18.84;100.00;62815.16;5077515;28;20197;-76
2022/07/29 00:07:40;;;;;;;10.83;8.80;;;;;;;19.41;100.00;62875.66;5091485;28;20202;-75
2022/07/29 00:10:09;;;;;;;10.60;8.83;;;;;;;19.30;100.00;62864.28;5090751;28;20227;-75
2022/07/29 00:12:36;;;;;;;10.93;8.80;;;;;;;19.45;100.00;62879.97;5091356;28;20244;-76
2022/07/29 00:15:05;;;;;;;9.60;8.53;;;;;;;19.50;100.00;62885.38;5090801;28;20219;-76
2022/07/29 00:17:33;;;;;;;12.17;9.07;;;;;;;19.57;100.00;62898.09;5098733;28;20234;-75
2022/07/29 00:20:01;;;;;;;10.67;9.03;;;;;;;19.46;100.00;62881.59;5092196;28;20203;-74
2022/07/29 00:22:29;;;;;;;12.07;8.83;;;;;;;19.64;100.00;62903.09;5082197;28;20224;-76
2022/07/29 00:24:57;;;;;;;12.03;9.07;;;;;;;19.58;100.00;62894.03;5070963;28;20204;-76
2022/07/29 00:27:25;;;;;;;11.80;9.17;;;;;;;19.62;100.00;62898.88;5070795;28;20196;-77
2022/07/29 00:29:52;;;;;;;10.33;9.10;;;;;;;19.53;100.00;62889.16;5072831;28;20610;-77
2022/07/29 00:32:19;;;;;;;14.37;9.63;;;;;;;19.63;100.00;62899.97;5079723;28;20199;-74
2022/07/29 00:37:31;;;;;;;11.83;9.67;;;;;;;19.53;100.00;62888.63;5071361;28;20277;-75
2022/07/29 00:39:59;;;;;;;12.83;10.27;;;;;;;19.53;100.00;62894.34;5071534;28;20207;-75
2022/07/29 00:42:27;;;;;;;11.90;10.27;;;;;;;19.70;100.00;62907.53;5071363;28;20207;-75
2022/07/29 00:44:55;;;;;;;13.03;10.23;;;;;;;19.55;100.00;62893.38;5090220;28;20568;-75
2022/07/29 00:47:22;;;;;;;13.33;9.37;;;;;;;19.53;100.00;62893.78;5091173;28;20200;-77
2022/07/29 00:49:49;;;;;;;19.77;9.70;;;;;;;19.72;100.00;62909.16;5079682;28;20232;-75
2022/07/29 00:52:16;;;;;;;15.63;10.47;;;;;;;19.59;100.00;62895.09;5072200;28;20203;-76
2022/07/29 00:54:43;;;;;;;13.17;10.80;;;;;;;19.50;100.00;62885.38;5082868;28;20647;-75
2022/07/29 00:57:10;;;;;;;13.70;10.67;;;;;;;19.42;100.00;62879.84;5071447;28;20203;-76
2022/07/29 00:59:38;;;;;;;13.97;11.50;;;;;;;19.31;100.00;62865.38;5071310;28;20203;-74
2022/07/29 01:02:06;;;;;;;16.70;11.53;;;;;;;19.41;100.00;62876.19;5077299;28;20228;-76
2022/07/29 01:04:33;;;;;;;12.50;11.10;;;;;;;19.46;100.00;62886.22;5064769;28;20586;-76
2022/07/29 01:07:03;;;;;;;12.33;11.03;;;;;;;19.49;100.00;62884.28;5090002;28;20218;-74
2022/07/29 01:09:32;;;;;;;11.37;9.80;;;;;;;19.58;100.00;62894.03;5083065;28;20224;-74
2022/07/29 01:12:01;;;;;;;12.43;11.13;;;;;;;19.55;100.00;62890.78;5073058;28;20196;-76
2022/07/29 01:14:29;;;;;;;14.63;9.07;;;;;;;19.56;100.00;62897.03;5072375;28;20192;-76
2022/07/29 01:17:03;;;;;;;14.80;11.70;;;;;;;19.21;100.00;62857.69;5082520;28;20203;-75
2022/07/29 01:19:50;;;;;;;17.10;10.77;;;;;;;19.51;100.00;62891.63;5080050;28;20200;-77
2022/07/29 01:22:28;;;;;;;12.77;10.90;;;;;;;19.53;100.00;62886.03;5057982;28;20220;-76
2022/07/29 01:25:25;;;;;;;14.13;10.40;;;;;;;19.43;100.00;62877.81;5070839;28;20207;-75
2022/07/29 01:28:09;;;;;;;11.10;8.70;;;;;;;18.95;100.00;62829.63;5051014;28;20197;-76
2022/07/29 01:30:40;;;;;;;10.70;8.93;;;;;;;19.48;100.00;62883.22;5084656;28;20232;-76
2022/07/29 01:33:48;;;;;;;9.20;8.20;;;;;;;19.45;100.00;62883.09;5070790;28;20208;-76
2022/07/29 01:36:07;;;;;;;9.13;8.10;;;;;;;19.34;100.00;62869.16;5060439;28;20197;-76
2022/07/29 01:38:39;;;;;;;12.27;8.50;;;;;;;19.31;100.00;62871.09;5074431;28;20195;-75
2022/07/29 01:41:10;;;;;;;9.87;8.03;;;;;;;18.75;100.00;62808.00;5075012;28;20196;-76
2022/07/29 01:43:44;;;;;;;9.43;8.43;;;;;;;19.25;100.00;62858.88;5075033;28;20196;-76
2022/07/29 01:46:15;;;;;;;12.70;7.87;;;;;;;19.20;100.00;62859.19;5074180;28;20693;-76
2022/07/29 01:48:47;;;;;;;9.50;8.30;;;;;;;18.81;100.00;62811.38;5087580;28;20200;-77
2022/07/29 01:51:20;;;;;;;15.13;8.73;;;;;;;19.13;100.00;62849.06;5078725;28;20255;-75
2022/07/29 01:53:53;;;;;;;13.43;8.80;;;;;;;19.34;100.00;62868.63;5070293;28;20200;-75
2022/07/29 01:56:25;;;;;;;10.63;9.53;;;;;;;19.35;100.00;62869.72;5085435;28;20261;-76
2022/07/29 01:58:54;;;;;;;11.27;8.73;;;;;;;19.35;100.00;62870.25;5085898;28;20192;-77
2022/07/29 02:01:25;;;;;;;12.03;9.10;;;;;;;19.28;100.00;62860.09;5091873;28;20208;-75
2022/07/29 02:03:54;;;;;;;9.53;8.53;;;;;;;19.22;100.00;62861.34;5093612;28;20206;-75
2022/07/29 02:06:24;;;;;;;9.90;8.77;;;;;;;19.23;100.00;62856.72;5082298;28;20192;-76
2022/07/29 02:08:54;;;;;;;9.23;8.27;;;;;;;19.15;100.00;62853.81;5094057;28;20214;-76
2022/07/29 02:11:23;;;;;;;11.07;8.97;;;;;;;19.19;100.00;62852.94;5084868;28;20234;-75
2022/07/29 02:13:52;;;;;;;12.17;9.03;;;;;;;19.21;100.00;62854.56;5089989;28;20657;-75
2022/07/29 02:16:25;;;;;;;11.77;8.57;;;;;;;18.79;100.00;62814.91;5102002;28;20211;-75
2022/07/29 02:18:56;;;;;;;11.60;8.50;;;;;;;19.12;100.00;62850.00;5085752;28;20197;-76
2022/07/29 02:21:27;;;;;;;11.03;8.60;;;;;;;18.96;100.00;62828.09;5073777;28;20201;-76
2022/07/29 02:23:56;;;;;;;11.13;8.93;;;;;;;18.09;100.00;62731.59;5073936;28;20192;-75
2022/07/29 02:26:26;;;;;;;11.47;8.97;;;;;;;18.94;100.00;62825.94;5074331;28;20255;-74
2022/07/29 02:28:57;;;;;;;10.93;8.90;;;;;;;18.97;100.00;62829.19;5073979;28;20216;-75
2022/07/29 02:31:30;;;;;;;12.93;9.23;;;;;;;19.17;100.00;62855.97;5074233;28;20223;-75
2022/07/29 02:33:58;;;;;;;14.27;9.43;;;;;;;19.18;100.00;62851.88;5073618;28;20204;-76
2022/07/29 02:36:27;;;;;;;10.80;9.57;;;;;;;19.24;100.00;62858.34;5073339;28;20192;-75
2022/07/29 02:38:57;;;;;;;11.23;9.80;;;;;;;18.89;100.00;62820.56;5073805;28;20211;-76
2022/07/29 02:41:29;;;;;;;11.00;9.90;;;;;;;19.05;100.00;62843.00;5073848;28;20282;-76
2022/07/29 02:44:04;;;;;;;11.43;9.70;;;;;;;19.02;100.00;62836.63;5076514;28;20197;-74
2022/07/29 02:46:36;;;;;;;14.00;9.50;;;;;;;19.14;100.00;62847.53;5083311;28;20623;-75
2022/07/29 02:49:10;;;;;;;15.23;10.87;;;;;;;18.81;100.00;62816.53;5075973;28;20273;-75
2022/07/29 02:51:46;;;;;;;13.07;10.20;;;;;;;19.21;100.00;62855.13;5073516;28;20250;-76
2022/07/29 02:54:23;;;;;;;17.23;10.23;;;;;;;19.13;100.00;62851.63;5074456;28;20196;-77
2022/07/29 02:56:55;;;;;;;16.43;10.70;;;;;;;19.06;100.00;62838.91;5074529;28;20196;-75
2022/07/29 02:59:27;;;;;;;13.77;11.27;;;;;;;18.92;100.00;62828.94;5061912;28;20196;-75
2022/07/29 03:01:59;;;;;;;13.47;10.83;;;;;;;18.90;100.00;62824.19;5073776;28;20279;-76
2022/07/29 03:04:29;;;;;;;13.30;11.13;;;;;;;18.70;100.00;62802.59;5073675;28;20259;-75
2022/07/29 03:06:59;;;;;;;17.17;11.10;;;;;;;19.00;100.00;62832.41;5074091;28;20860;-76
2022/07/29 03:09:27;;;;;;;14.37;10.73;;;;;;;18.96;100.00;62828.09;5073011;28;20204;-75
2022/07/29 03:11:55;;;;;;;15.03;11.87;;;;;;;19.01;100.00;62832.97;5074112;28;20193;-76
2022/07/29 03:14:23;;;;;;;14.20;12.60;;;;;;;18.82;100.00;62815.56;5073773;28;20219;-77
2022/07/29 03:16:52;;;;;;;15.47;12.67;;;;;;;18.28;100.00;62755.22;5074334;28;20250;-75
2022/07/29 03:19:21;;;;;;;15.80;13.10;;;;;;;18.60;100.00;62789.22;5072999;28;20212;-76
2022/07/29 03:21:48;;;;;;;16.50;13.67;;;;;;;18.68;100.00;62797.88;5090666;28;20293;-75
2022/07/29 03:24:29;;;;;;;21.13;13.60;;;;;;;18.84;100.00;62814.59;5092332;28;20192;-75
2022/07/29 03:26:59;;;;;;;15.30;13.50;;;;;;;18.58;100.00;62792.22;5067702;28;20191;-76
2022/07/29 03:29:27;;;;;;;19.23;13.40;;;;;;;18.58;100.00;62786.53;5091524;28;20318;-75
2022/07/29 03:31:55;;;;;;;19.30;15.50;;;;;;;18.51;100.00;62779.53;5091975;28;20219;-76
2022/07/29 03:34:23;;;;;;;18.00;14.20;;;;;;;18.41;100.00;62773.88;5091409;28;20200;-75
2022/07/29 03:36:52;;;;;;;17.17;14.50;;;;;;;16.03;100.00;62514.22;5092177;28;20206;-76
2022/07/29 03:39:23;;;;;;;19.07;15.63;;;;;;;18.22;100.00;62753.88;5091340;28;20200;-77
2022/07/29 03:41:55;;;;;;;20.23;16.83;;;;;;;18.01;100.00;62725.53;5092317;28;20196;-74
2022/07/29 03:44:24;;;;;;;31.67;22.33;;;;;;;17.39;100.00;62664.84;5078620;28;20203;-74
2022/07/29 03:46:54;;;;;;;30.53;23.90;;;;;;;18.09;100.00;62734.16;5066104;28;20195;-74
2022/07/29 03:49:23;;;;;;;43.93;30.57;;;;;;;17.92;100.00;62718.41;5091764;28;20617;-76
2022/07/29 03:51:51;;;;;;;46.37;31.90;;;;;;;18.33;100.00;62762.66;5091023;28;20215;-76
2022/07/29 03:54:18;;;;;;;45.47;29.33;;;;;;;18.40;100.00;62767.63;5087681;28;20204;-76
2022/07/29 03:56:47;;;;;;;32.97;21.33;;;;;;;18.58;100.00;62787.06;5071901;28;20639;-76
2022/07/29 03:59:16;;;;;;;25.90;15.90;;;;;;;18.72;100.00;62802.19;5085311;28;20188;-76
2022/07/29 04:01:46;;;;;;;21.83;13.13;;;;;;;18.84;100.00;62815.16;5071079;28;20196;-76
2022/07/29 04:04:13;;;;;;;14.63;11.80;;;;;;;18.91;100.00;62820.13;5077502;28;20211;-77
2022/07/29 04:06:43;;;;;;;12.33;11.07;;;;;;;18.55;100.00;62789.00;5091691;28;20199;-77
2022/07/29 04:09:10;;;;;;;12.17;10.20;;;;;;;19.06;100.00;62836.31;5091340;28;20261;-75
2022/07/29 04:11:39;;;;;;;13.10;10.33;;;;;;;18.70;100.00;62802.59;5091596;28;20246;-76
2022/07/29 04:14:07;;;;;;;15.73;11.40;;;;;;;19.26;100.00;62857.91;5070453;28;20192;-75
2022/07/29 04:16:35;;;;;;;17.30;10.20;;;;;;;19.24;100.00;62860.94;5094887;28;20200;-75
2022/07/29 04:19:02;;;;;;;17.83;13.00;;;;;;;19.35;100.00;62869.72;5083123;28;20215;-76
2022/07/29 04:21:29;;;;;;;23.13;15.80;;;;;;;19.41;100.00;62880.81;5071865;28;20234;-76
2022/07/29 04:23:57;;;;;;;26.70;19.43;;;;;;;19.54;100.00;62887.13;5072000;28;20223;-76
2022/07/29 04:26:24;;;;;;;33.23;23.60;;;;;;;18.75;100.00;62805.44;5072008;28;20270;-75
2022/07/29 04:28:51;;;;;;;32.77;21.20;;;;;;;19.60;100.00;62896.19;5071406;28;20223;-76
2022/07/29 04:31:18;;;;;;;23.80;16.30;;;;;;;19.46;100.00;62881.06;5071524;28;20228;-75
2022/07/29 04:33:46;;;;;;;18.27;13.60;;;;;;;19.64;100.00;62897.94;5075362;28;20607;-76
2022/07/29 04:36:13;;;;;;;17.13;12.03;;;;;;;19.71;100.00;62910.66;5091604;28;20192;-77
2022/07/29 04:38:40;;;;;;;20.40;12.83;;;;;;;19.51;100.00;62886.47;5091335;28;20200;-76
2022/07/29 04:41:10;;;;;;;18.37;14.23;;;;;;;19.60;100.00;62896.72;5091130;28;20207;-75
2022/07/29 04:43:37;;;;;;;23.60;15.60;;;;;;;19.89;100.00;62932.69;5086041;28;20585;-75
2022/07/29 04:46:07;;;;;;;31.87;16.17;;;;;;;19.94;100.00;62932.94;5082557;28;20241;-76
2022/07/29 04:48:34;;;;;;;28.20;15.90;;;;;;;19.90;100.00;62926.03;5076001;28;20196;-76
2022/07/29 04:51:01;;;;;;;27.90;17.37;;;;;;;20.29;100.00;62970.25;5091015;28;20736;-75
2022/07/29 04:53:28;;;;;;;22.90;16.90;;;;;;;20.45;100.00;62988.09;5090527;28;20202;-75
2022/07/29 04:55:55;;;;;;;24.17;16.63;;;;;;;20.60;100.00;63004.31;5090343;28;20587;-76
2022/07/29 04:58:25;;;;;;;24.27;16.70;;;;;;;20.78;100.00;63026.38;5064833;28;20203;-77
2022/07/29 05:00:53;;;;;;;21.23;14.13;;;;;;;20.89;100.00;63035.69;5090991;28;20199;-76
2022/07/29 05:03:20;;;;;;;17.37;13.63;;;;;;;20.75;100.00;63020.53;5091077;28;20704;-77
2022/07/29 05:05:47;;;;;;;19.47;14.20;;;;;;;20.00;100.00;62939.41;5090671;28;20196;-77
2022/07/29 05:08:15;;;;;;;17.23;14.47;;;;;;;21.14;100.00;63061.66;5091007;28;20646;-76
2022/07/29 05:10:42;;;;;;;16.70;12.70;;;;;;;21.25;100.00;63073.59;5090594;28;20720;-75
2022/07/29 05:13:09;;;;;;;16.73;11.40;;;;;;;21.42;100.00;63092.53;5093475;28;20214;-75
2022/07/29 05:15:39;;;;;;;13.17;9.23;;;;;;;21.33;100.00;63082.25;5094587;28;20199;-77
2022/07/29 05:18:07;;;;;;;11.87;9.00;;;;;;;21.40;100.00;63095.00;5092755;28;20203;-75
2022/07/29 05:20:34;;;;;;;14.37;8.57;;;;;;;21.29;100.00;63072.72;5083139;28;20210;-77
2022/07/29 05:23:02;;;;;;;13.97;7.93;;;;;;;21.20;100.00;63068.16;5093363;28;20227;-75
2022/07/29 05:25:30;;;;;;;10.17;8.23;;;;;;;21.27;100.00;63075.75;5094387;28;20206;-74
2022/07/29 05:27:57;;;;;;;11.43;7.57;;;;;;;21.66;100.00;63123.16;5094172;28;20211;-75
2022/07/29 05:30:26;;;;;;;13.13;6.80;;;;;;;21.75;100.00;63127.72;5094407;28;20228;-77
2022/07/29 05:32:55;;;;;;;11.87;7.10;;;;;;;21.91;100.00;63150.25;5093096;28;20195;-76
2022/07/29 05:35:23;;;;;;;8.50;6.93;;;;;;;22.16;100.00;63172.13;5094074;28;20200;-75
2022/07/29 05:37:50;;;;;;;10.90;6.93;;;;;;;22.24;100.00;63185.97;5093038;28;20223;-75
2022/07/29 05:40:18;;;;;;;7.83;7.03;;;;;;;22.52;100.00;63211.13;5094263;28;20195;-76
2022/07/29 05:42:45;;;;;;;9.37;6.57;;;;;;;22.70;100.00;63229.56;5093449;28;20196;-75
2022/07/29 05:45:12;;;;;;;8.13;6.33;;;;;;;22.90;100.00;63251.25;5093878;28;20199;-76
2022/07/29 05:47:40;;;;;;;10.67;6.23;;;;;;;22.68;100.00;63233.13;5092546;28;20202;-76
2022/07/29 05:50:10;;;;;;;9.33;6.60;;;;;;;23.07;100.00;63269.66;5093706;28;20203;-77
2022/07/29 05:52:39;;;;;;;8.23;6.20;;;;;;;22.12;100.00;63167.78;5092457;28;20230;-75
2022/07/29 05:55:06;;;;;;;9.67;6.00;;;;;;;22.30;100.00;63189.34;5094196;27;20203;-75
2022/07/29 05:57:34;;;;;;;9.23;5.93;;;;;;;22.28;100.00;63185.13;5093427;28;20203;-78
2022/07/29 06:00:01;;;;;;;10.00;6.10;;;;;;;22.34;100.00;63194.22;5093937;28;20727;-75
2022/07/29 06:02:30;;;;;;;7.73;6.53;;;;;;;22.19;100.00;63175.38;5092682;28;20210;-75
2022/07/29 06:04:57;;;;;;;9.67;6.40;;;;;;;22.64;100.00;63223.59;5093711;28;20621;-75
2022/07/29 06:07:28;;;;;;;8.70;7.07;;;;;;;22.96;100.00;63258.28;5092656;28;20195;-77
2022/07/29 06:09:55;;;;;;;10.83;6.50;;;;;;;23.45;100.00;63310.88;5092317;28;20248;-74
2022/07/29 06:12:22;;;;;;;8.97;6.90;;;;;;;23.36;100.00;63303.72;5095882;28;20219;-74
2022/07/29 06:14:49;;;;;;;10.33;7.07;;;;;;;23.41;100.00;63306.53;5097021;28;20570;-74
2022/07/29 06:17:17;;;;;;;13.10;7.10;;;;;;;23.56;100.00;63322.81;5093261;28;20205;-74
2022/07/29 06:19:46;;;;;;;8.53;6.67;;;;;;;24.02;100.00;63375.31;5080150;28;20734;-77
2022/07/29 06:22:13;;;;;;;11.23;7.00;;;;;;;23.28;100.00;63297.63;5093640;28;20239;-76
2022/07/29 06:24:43;;;;;;;7.33;6.57;;;;;;;24.25;100.00;63397.13;5092166;28;20256;-77
2022/07/29 06:27:11;;;;;;;10.23;6.10;;;;;;;24.42;100.00;63415.03;5093627;28;20198;-75
2022/07/29 06:29:39;;;;;;;8.70;6.50;;;;;;;23.91;100.00;63360.22;5094584;28;20234;-78
2022/07/29 06:32:08;;;;;;;10.43;6.93;;;;;;;23.73;100.00;63343.84;5097525;28;20277;-76
2022/07/29 06:34:36;;;;;;;12.97;6.90;;;;;;;24.18;100.00;63390.09;5093558;28;20207;-77
2022/07/29 06:37:07;;;;;;;8.80;6.20;;;;;;;24.66;100.00;63438.50;5093304;28;20196;-76
2022/07/29 06:39:36;;;;;;;7.33;5.67;;;;;;;24.43;100.00;63416.16;5093120;28;20287;-76
2022/07/29 06:42:04;;;;;;;12.90;5.80;;;;;;;24.89;100.00;63463.50;5093150;28;20207;-77
2022/07/29 06:44:33;;;;;;;9.93;5.53;;;;;;;24.69;100.00;63444.38;5093190;28;20207;-78
2022/07/29 06:47:01;;;;;;;6.77;5.50;;;;;;;24.65;100.00;63440.03;5093090;28;20613;-75
2022/07/29 06:49:29;;;;;;;8.63;5.27;;;;;;;24.05;100.00;63375.97;5086874;28;20195;-75
2022/07/29 06:51:56;;;;;;;8.87;5.10;;;;;;;25.04;100.00;63482.38;5072848;28;20223;-75
2022/07/29 06:54:23;;;;;;;8.20;4.97;;;;;;;25.11;100.00;63490.00;5072626;28;20207;-77
2022/07/29 06:56:50;;;;;;;7.60;5.13;;;;;;;25.33;100.00;63513.34;5073231;28;20675;-75
2022/07/29 06:59:18;;;;;;;6.97;5.13;;;;;;;25.79;100.00;63561.25;5066859;28;20199;-75
2022/07/29 07:01:46;;;;;;;4.97;4.47;;;;;;;26.06;100.00;63584.28;5091419;28;20209;-75
2022/07/29 07:04:13;;;;;;;6.00;4.37;;;;;;;26.23;100.00;63610.63;5092246;28;20192;-74
2022/07/29 07:06:40;;;;;;;8.17;5.03;;;;;;;25.88;100.00;63576.25;5091776;28;20725;-75
2022/07/29 07:09:08;;;;;;;7.53;4.70;;;;;;;25.56;100.00;63538.88;5092731;28;20202;-75
2022/07/29 07:11:37;;;;;;;6.20;4.50;;;;;;;26.07;100.00;63593.22;5090603;28;20223;-76
2022/07/29 07:14:05;;;;;;;8.20;4.07;;;;;;;26.18;100.00;63605.19;5082493;28;20281;-76
2022/07/29 07:16:34;;;;;;;5.00;4.10;;;;;;;26.25;100.00;63610.19;5076158;28;20621;-75
2022/07/29 07:19:01;;;;;;;12.10;4.60;;;;;;;26.05;100.00;63585.81;5074370;28;20656;-76
2022/07/29 07:21:29;;;;;;;9.47;4.30;;;;;;;26.37;100.00;63631.06;5073014;28;20211;-75
2022/07/29 07:23:58;;;;;;;13.43;4.73;;;;;;;26.17;100.00;63604.09;5073099;28;20263;-74
2022/07/29 07:26:25;;;;;;;6.27;4.33;;;;;;;26.56;100.00;63651.72;5073094;28;20199;-77
2022/07/29 07:28:54;;;;;;;6.73;4.40;;;;;;;26.66;100.00;63657.38;5073264;28;20230;-77
2022/07/29 07:31:22;;;;;;;7.37;4.40;;;;;;;26.14;100.00;63600.84;5073886;28;20228;-76
2022/07/29 07:33:53;;;;;;;8.57;4.13;;;;;;;27.03;100.00;63695.00;5073113;28;20196;-74
2022/07/29 07:36:20;;;;;;;5.43;3.93;;;;;;;26.73;100.00;63665.00;5073021;28;20188;-76
2022/07/29 07:38:48;;;;;;;4.97;4.07;;;;;;;26.93;100.00;63686.75;5073531;28;20196;-76
2022/07/29 07:41:16;;;;;;;8.40;4.23;;;;;;;27.00;100.00;63694.38;5072943;28;20203;-76
2022/07/29 07:43:44;;;;;;;4.90;3.83;;;;;;;27.10;100.00;63707.88;5072362;28;20211;-75
2022/07/29 07:46:12;;;;;;;8.00;4.60;;;;;;;27.57;100.00;63761.63;5058650;28;20212;-75
2022/07/29 07:48:39;;;;;;;6.70;4.27;;;;;;;27.43;100.00;63735.94;5072196;28;20227;-75
2022/07/29 07:51:08;;;;;;;7.87;4.00;;;;;;;27.38;100.00;63735.72;5078817;28;20201;-76
2022/07/29 07:53:35;;;;;;;4.10;3.60;;;;;;;27.85;100.00;63788.41;5091826;28;20285;-74
2022/07/29 07:56:02;;;;;;;5.50;4.10;;;;;;;28.06;100.00;63808.66;5091828;28;20204;-74
2022/07/29 07:58:31;;;;;;;4.77;3.97;;;;;;;28.03;100.00;63805.41;5091351;28;20570;-77
2022/07/29 08:00:59;;;;;;;8.03;3.60;;;;;;;27.90;100.00;63791.22;5091766;28;20196;-76
2022/07/29 08:03:26;;;;;;;4.60;3.70;;;;;;;28.42;100.00;63851.03;5076196;28;20594;-76
2022/07/29 08:05:54;;;;;;;4.83;3.77;;;;;;;28.57;100.00;63863.69;5080381;28;20199;-75
2022/07/29 08:08:23;;;;;;;7.60;3.50;;;;;;;28.80;100.00;63894.50;5075549;28;20227;-78
2022/07/29 08:10:55;;;;;;;6.87;3.40;;;;;;;28.87;100.00;63896.91;5086196;28;20196;-73
2022/07/29 08:13:25;;;;;;;8.40;3.67;;;;;;;28.46;100.00;63854.28;5079189;28;20261;-76
2022/07/29 08:15:57;;;;;;;4.53;3.40;;;;;;;28.67;100.00;63874.56;5071218;28;20196;-77
2022/07/29 08:18:25;;;;;;;3.80;3.40;;;;;;;28.98;100.00;63908.88;5071787;28;20224;-75
2022/07/29 08:20:52;;;;;;;3.97;3.30;;;;;;;29.24;100.00;63936.69;5082533;28;20688;-76
2022/07/29 08:23:20;;;;;;;5.67;3.53;;;;;;;29.12;100.00;63923.59;5090977;28;20219;-76
2022/07/29 08:25:48;;;;;;;4.00;3.60;;;;;;;29.30;100.00;63947.94;5091581;28;20202;-75
2022/07/29 08:28:15;;;;;;;6.87;3.70;;;;;;;29.43;100.00;63959.47;5091043;28;20252;-75
2022/07/29 08:30:42;;;;;;;7.63;3.27;;;;;;;29.29;100.00;63944.75;5091994;28;20228;-75
2022/07/29 08:33:10;;;;;;;6.70;3.10;;;;;;;28.88;100.00;63900.06;5091091;28;20227;-74
2022/07/29 08:35:37;;;;;;;4.97;3.33;;;;;;;28.10;100.00;63815.63;5091365;28;20526;-75
2022/07/29 08:38:04;;;;;;;5.53;3.37;;;;;;;29.06;100.00;63920.22;5092099;28;20283;-75
2022/07/29 08:40:32;;;;;;;3.80;3.40;;;;;;;29.59;100.00;63976.91;5091970;28;20210;-75
2022/07/29 08:43:05;;;;;;;8.53;3.13;;;;;;;29.60;100.00;63975.91;5077980;28;20257;-75
2022/07/29 08:45:42;;;;;;;9.90;3.97;;;;;;;29.90;100.00;64008.13;5090520;28;20203;-75
2022/07/29 08:48:10;;;;;;;4.50;3.20;;;;;;;29.58;100.00;63973.22;5089848;28;20200;-76
2022/07/29 08:50:38;;;;;;;5.27;3.00;;;;;;;29.73;100.00;63990.13;5089440;28;20203;-74
2022/07/29 08:53:07;;;;;;;5.17;3.10;;;;;;;29.99;100.00;64013.22;5090445;28;20314;-76
2022/07/29 08:55:35;;;;;;;5.07;3.10;;;;;;;30.07;100.00;64026.63;5089282;28;20197;-76
2022/07/29 08:58:08;;;;;;;4.47;3.10;;;;;;;30.21;100.00;64039.28;5090534;28;20199;-74
2022/07/29 09:00:36;;;;;;;7.50;3.13;;;;;;;30.33;100.00;64055.00;5089209;28;20202;-74
2022/07/29 09:03:06;;;;;;;9.50;3.20;;;;;;;29.95;100.00;64008.28;5090161;28;20234;-76
2022/07/29 09:05:35;;;;;;;3.80;3.17;;;;;;;29.68;100.00;63981.47;5089055;28;20191;-76
2022/07/29 09:08:03;;;;;;;3.67;3.10;;;;;;;30.45;100.00;64070.19;5090164;28;20201;-76
2022/07/29 09:10:31;;;;;;;5.23;3.30;;;;;;;30.63;100.00;64084.56;5089729;28;20197;-76
2022/07/29 09:12:59;;;;;;;3.73;3.37;;;;;;;31.09;100.00;64132.13;5090425;28;20223;-76
2022/07/29 09:15:28;;;;;;;5.67;3.40;;;;;;;31.41;100.00;64166.56;5089881;28;20210;-74
2022/07/29 09:17:58;;;;;;;5.70;3.80;;;;;;;30.91;100.00;64111.97;5089204;28;20221;-75
2022/07/29 09:20:26;;;;;;;5.13;3.60;;;;;;;30.49;100.00;64071.91;5077450;28;20225;-75
2022/07/29 09:22:54;;;;;;;8.47;3.73;;;;;;;29.78;100.00;63989.78;5089336;28;20231;-76
2022/07/29 09:25:34;;;;;;;4.67;3.30;;;;;;;29.84;100.00;64001.56;5090665;28;20203;-76
2022/07/29 09:28:08;;;;;;;6.97;4.10;;;;;;;29.81;100.00;63998.28;5089720;28;20216;-75
2022/07/29 09:30:51;;;;;;;6.33;3.97;;;;;;;29.61;100.00;63977.00;5090181;28;20227;-76
2022/07/29 09:33:18;;;;;;;5.40;3.87;;;;;;;29.50;100.00;63964.50;5089726;28;20246;-75
2022/07/29 09:35:46;;;;;;;6.73;3.27;;;;;;;29.54;100.00;63966.75;5089729;28;20211;-76
2022/07/29 09:38:14;;;;;;;6.60;4.33;;;;;;;29.56;100.00;63968.41;5090132;28;20200;-75
2022/07/29 09:40:42;;;;;;;7.50;4.03;;;;;;;29.58;100.00;63975.84;5090609;28;20206;-76
2022/07/29 09:43:13;;;;;;;6.83;3.50;;;;;;;29.93;100.00;64008.75;5084105;28;20209;-75
2022/07/29 09:45:42;;;;;;;7.73;3.50;;;;;;;30.09;100.00;64028.81;5073466;28;20592;-74
2022/07/29 09:48:17;;;;;;;7.40;3.50;;;;;;;30.40;100.00;64057.41;5083816;28;20590;-75
2022/07/29 09:50:46;;;;;;;3.90;3.00;;;;;;;30.86;100.00;64106.50;5073541;28;20311;-76
2022/07/29 09:53:31;;;;;;;6.47;3.37;;;;;;;31.41;100.00;64171.81;5075253;28;20317;-74
2022/07/29 09:55:58;;;;;;;5.33;3.40;;;;;;;31.52;100.00;64183.81;5075383;28;20597;-74
2022/07/29 09:58:25;;;;;;;7.37;3.17;;;;;;;31.62;100.00;64195.28;5085965;28;20208;-75
2022/07/29 10:00:56;;;;;;;4.37;3.17;;;;;;;31.50;100.00;64182.19;5081197;28;20783;-76
2022/07/29 10:03:25;;;;;;;6.50;3.30;;;;;;;31.00;100.00;64127.03;5082083;28;20202;-76
2022/07/29 10:06:06;;;;;;;9.57;3.47;;;;;;;31.78;100.00;64212.22;5081128;28;20208;-74
2022/07/29 10:08:35;;;;;;;5.53;3.00;;;;;;;32.24;100.00;64261.91;5092854;28;20199;-75
2022/07/29 10:11:14;;;;;;;4.20;3.03;;;;;;;32.25;100.00;64263.56;5080863;28;20574;-75
2022/07/29 10:13:42;;;;;;;6.80;3.20;;;;;;;31.78;100.00;64212.22;5085409;28;20311;-76
2022/07/29 10:16:13;;;;;;;4.03;3.10;;;;;;;31.15;100.00;64143.44;5077692;28;20238;-74
2022/07/29 10:18:42;;;;;;;3.90;3.50;;;;;;;31.42;100.00;64172.91;5077929;28;20209;-75
2022/07/29 10:21:10;;;;;;;6.10;3.17;;;;;;;31.37;100.00;64170.59;5089318;28;20278;-76
2022/07/29 10:23:42;;;;;;;4.67;3.10;;;;;;;32.11;100.00;64245.66;5070280;28;20223;-75
2022/07/29 10:26:11;;;;;;;6.67;3.27;;;;;;;31.96;100.00;64234.53;5094030;28;20209;-74
2022/07/29 10:28:38;;;;;;;4.87;2.80;;;;;;;31.19;100.00;64145.69;5074589;28;20200;-77
2022/07/29 10:31:07;;;;;;;7.03;3.10;;;;;;;31.36;100.00;64166.34;5077184;28;20198;-74
2022/07/29 10:33:49;;;;;;;6.47;3.47;;;;;;;31.36;100.00;64166.34;5077121;28;20591;-75
2022/07/29 10:36:33;;;;;;;4.87;3.37;;;;;;;31.53;100.00;64179.66;5089628;28;20198;-74
2022/07/29 10:39:12;;;;;;;7.00;3.63;;;;;;;31.72;100.00;64202.47;5097343;28;20198;-74
2022/07/29 10:41:59;;;;;;;6.43;3.80;;;;;;;32.01;100.00;64234.72;5097404;28;20210;-74
2022/07/29 10:44:28;;;;;;;3.57;3.07;;;;;;;32.30;100.00;64274.31;5098396;28;20613;-75
2022/07/29 10:46:57;;;;;;;3.67;3.33;;;;;;;32.77;100.00;64319.88;5099547;28;20196;-76
2022/07/29 10:49:27;;;;;;;4.00;3.60;;;;;;;32.64;100.00;64300.38;5099133;28;20280;-76
2022/07/29 10:52:04;;;;;;;4.33;3.53;;;;;;;33.09;100.00;64354.31;5101701;28;20200;-76
2022/07/29 10:54:44;;;;;;;5.03;3.87;;;;;;;32.95;100.00;64331.06;5097888;28;20195;-76
2022/07/29 10:57:20;;;;;;;3.67;3.37;;;;;;;33.04;100.00;64348.84;5098942;28;20290;-75
2022/07/29 10:59:50;;;;;;;6.93;3.57;;;;;;;33.58;100.00;64407.34;5074635;28;20196;-77
2022/07/29 11:02:43;;;;;;;3.80;3.40;;;;;;;33.75;100.00;64423.84;5098684;28;20196;-74
2022/07/29 11:05:12;;;;;;;6.33;3.60;;;;;;;33.46;100.00;64392.13;5095057;28;20194;-76
2022/07/29 11:08:00;;;;;;;3.93;3.57;;;;;;;33.24;100.00;64371.25;5092226;28;20720;-75
2022/07/29 11:10:29;;;;;;;4.63;4.07;;;;;;;32.90;100.00;64333.53;5082576;28;20800;-74
2022/07/29 11:12:56;;;;;;;6.57;4.10;;;;;;;32.92;100.00;64335.72;5077217;28;20225;-75
2022/07/29 11:15:23;;;;;;;4.93;3.80;;;;;;;33.43;100.00;64390.94;5096048;28;20202;-74
2022/07/29 11:18:10;;;;;;;7.10;4.00;;;;;;;33.14;100.00;64360.31;5098017;28;20191;-72
2022/07/29 11:20:39;;;;;;;4.50;4.10;;;;;;;32.90;100.00;64333.53;5075800;28;20283;-75
2022/07/29 11:23:20;;;;;;;5.03;4.00;;;;;;;33.30;100.00;64376.72;5094506;28;20226;-75
2022/07/29 11:26:19;;;;;;;4.60;3.97;;;;;;;33.34;100.00;64381.09;5077110;28;20213;-75
2022/07/29 11:28:57;;;;;;;7.50;4.60;;;;;;;33.11;100.00;64353.84;5076014;28;20659;-76
2022/07/29 11:31:36;;;;;;;4.43;4.03;;;;;;;33.22;100.00;64365.88;5064159;28;20193;-76
2022/07/29 11:34:21;;;;;;;7.23;4.10;;;;;;;33.48;100.00;64391.13;5077348;28;20232;-75